Time;durP1;ratioP1;P1;durP2;ratioP2;P2;SDS_P1;SDS_P2;PMS_P1;PMS_P2;Temp;Humidity;BMP_temperature;BMP_pressure;BME280_temperature;BME280_humidity;BME280_pressure;Samples;Min_cycle;Max_cycle;Signal;HPM_P1;HPM_P2
2022/10/13 00:00:12;;;;;;;;;;;20.00;66.00;;;;;;5133092;27;19916;-79
2022/10/13 00:02:38;;;;;;;;;;;20.00;65.80;;;;;;5133300;28;19930;-79
2022/10/13 00:05:05;;;;;;;;;;;19.90;67.10;;;;;;5114741;28;20289;-79
2022/10/13 00:07:32;;;;;;;;;;;19.90;67.10;;;;;;5133422;28;19980;-79
2022/10/13 00:09:59;;;;;;;;;;;19.90;68.00;;;;;;5133160;27;20361;-77
2022/10/13 00:12:25;;;;;;;;;;;19.90;66.10;;;;;;5133254;28;19911;-79
2022/10/13 00:14:52;;;;;;;;;;;19.90;66.50;;;;;;5133010;28;19914;-79
2022/10/13 00:17:19;;;;;;;;;;;19.80;65.80;;;;;;5132991;28;20332;-78
2022/10/13 00:19:45;;;;;;;;;;;19.80;65.70;;;;;;5133122;27;19968;-78
2022/10/13 00:22:12;;;;;;;;;;;19.80;66.20;;;;;;5133155;28;19911;-79
2022/10/13 00:24:38;;;;;;;;;;;19.70;65.40;;;;;;5133122;28;20365;-79
2022/10/13 00:27:05;;;;;;;;;;;19.70;66.80;;;;;;5132866;28;19959;-79
2022/10/13 00:29:32;;;;;;;;;;;19.70;67.40;;;;;;5135094;27;20276;-79
2022/10/13 00:31:58;;;;;;;;;;;19.70;67.90;;;;;;5137094;27;20368;-79
2022/10/13 00:34:25;;;;;;;;;;;19.70;67.60;;;;;;5137144;27;19935;-79
2022/10/13 00:36:52;;;;;;;;;;;19.60;68.90;;;;;;5118862;27;19919;-79
2022/10/13 00:39:18;;;;;;;;;;;19.60;68.60;;;;;;5136715;27;20297;-79
2022/10/13 00:41:45;;;;;;;;;;;19.60;68.90;;;;;;5136797;27;20281;-78
2022/10/13 00:44:30;;;;;;;;;;;19.50;69.10;;;;;;5118147;27;20295;-79
2022/10/13 00:46:57;;;;;;;;;;;19.60;68.20;;;;;;5136907;27;19907;-78
2022/10/13 00:49:23;;;;;;;;;;;19.60;69.60;;;;;;5136689;27;19907;-79
2022/10/13 00:51:50;;;;;;;;;;;19.50;69.30;;;;;;5137039;27;19958;-79
2022/10/13 00:54:17;;;;;;;;;;;19.50;68.70;;;;;;5136641;27;20025;-78
2022/10/13 00:56:44;;;;;;;;;;;19.40;68.80;;;;;;5118205;27;19907;-78
2022/10/13 00:59:13;;;;;;;;;;;19.50;68.50;;;;;;5118126;27;19923;-78
2022/10/13 01:01:40;;;;;;;;;;;19.50;68.20;;;;;;5118013;27;20251;-78
2022/10/13 01:04:06;;;;;;;;;;;19.50;67.60;;;;;;5136378;27;20003;-79
2022/10/13 01:06:33;;;;;;;;;;;19.50;68.10;;;;;;5136128;27;19907;-80
2022/10/13 01:09:00;;;;;;;;;;;19.50;67.70;;;;;;5118037;27;19939;-78
2022/10/13 01:11:46;;;;;;;;;;;19.50;68.30;;;;;;5117949;27;20393;-78
2022/10/13 01:14:28;;;;;;;;;;;19.60;68.70;;;;;;5112100;27;19995;-79
2022/10/13 01:17:04;;;;;;;;;;;19.50;68.50;;;;;;5136023;27;19914;-78
2022/10/13 01:19:49;;;;;;;;;;;19.60;67.90;;;;;;5135807;27;19915;-79
2022/10/13 01:22:15;;;;;;;;;;;19.60;68.60;;;;;;5136571;27;19968;-78
2022/10/13 01:24:51;;;;;;;;;;;19.60;68.00;;;;;;5136392;27;20349;-79
2022/10/13 01:27:36;;;;;;;;;;;19.60;68.70;;;;;;5135811;27;20181;-79
2022/10/13 01:30:09;;;;;;;;;;;19.60;70.20;;;;;;5136594;27;19908;-80
2022/10/13 01:32:54;;;;;;;;;;;19.60;70.40;;;;;;5117256;27;19954;-79
2022/10/13 01:35:30;;;;;;;;;;;19.50;70.10;;;;;;5135632;27;19908;-78
2022/10/13 01:38:00;;;;;;;;;;;19.50;70.50;;;;;;5135666;27;19908;-78
2022/10/13 01:40:28;;;;;;;;;;;19.40;71.00;;;;;;5116037;27;20353;-79
2022/10/13 01:42:55;;;;;;;;;;;19.40;71.20;;;;;;5117391;27;19907;-79
2022/10/13 01:45:23;;;;;;;;;;;19.40;71.20;;;;;;5135506;27;19907;-78
2022/10/13 01:47:49;;;;;;;;;;;19.30;70.80;;;;;;5117081;27;20405;-77
2022/10/13 01:50:16;;;;;;;;;;;19.30;71.50;;;;;;5117263;27;19907;-78
2022/10/13 01:52:43;;;;;;;;;;;19.30;70.80;;;;;;5117216;27;19908;-79
2022/10/13 01:55:10;;;;;;;;;;;19.30;71.20;;;;;;5135175;27;19919;-79
2022/10/13 01:57:40;;;;;;;;;;;19.30;71.30;;;;;;5117409;27;19915;-78
2022/10/13 02:00:08;;;;;;;;;;;19.30;71.40;;;;;;5135576;27;19946;-78
2022/10/13 02:02:54;;;;;;;;;;;19.30;71.30;;;;;;5135250;27;19907;-78
2022/10/13 02:05:27;;;;;;;;;;;19.30;71.20;;;;;;5127383;27;20490;-78
2022/10/13 02:08:03;;;;;;;;;;;19.30;70.90;;;;;;5135446;27;20273;-78
2022/10/13 02:10:34;;;;;;;;;;;19.30;71.30;;;;;;5135139;27;19915;-78
2022/10/13 02:13:04;;;;;;;;;;;19.30;70.30;;;;;;5117351;27;20337;-78
2022/10/13 02:15:32;;;;;;;;;;;19.30;70.60;;;;;;5135099;27;19907;-78
2022/10/13 02:17:59;;;;;;;;;;;19.30;71.50;;;;;;5134927;27;19912;-80
2022/10/13 02:20:26;;;;;;;;;;;19.40;71.80;;;;;;5116715;27;20381;-79
2022/10/13 02:22:54;;;;;;;;;;;19.40;70.30;;;;;;5135076;27;19954;-80
2022/10/13 02:25:21;;;;;;;;;;;19.40;70.40;;;;;;5116350;27;19915;-78
2022/10/13 02:27:48;;;;;;;;;;;19.40;70.70;;;;;;5116579;27;20326;-80
2022/10/13 02:30:21;;;;;;;;;;;19.50;71.40;;;;;;5134594;27;19907;-80
2022/10/13 02:32:47;;;;;;;;;;;19.50;71.40;;;;;;5116283;27;19933;-78
2022/10/13 02:35:14;;;;;;;;;;;19.50;71.50;;;;;;5134759;27;19951;-78
2022/10/13 02:37:41;;;;;;;;;;;19.50;71.40;;;;;;5134530;27;19914;-78
2022/10/13 02:40:07;;;;;;;;;;;19.50;71.40;;;;;;5134718;27;20010;-78
2022/10/13 02:42:34;;;;;;;;;;;19.50;71.30;;;;;;5134386;27;20132;-78
2022/10/13 02:45:01;;;;;;;;;;;19.60;71.40;;;;;;5134480;27;19907;-78
2022/10/13 02:47:27;;;;;;;;;;;19.50;71.40;;;;;;5116144;27;19911;-77
2022/10/13 02:49:54;;;;;;;;;;;19.50;72.60;;;;;;5115600;27;19907;-78
2022/10/13 02:52:20;;;;;;;;;;;19.50;71.90;;;;;;5134283;27;19919;-78
2022/10/13 02:54:47;;;;;;;;;;;19.50;72.40;;;;;;5134274;27;20329;-78
2022/10/13 02:57:14;;;;;;;;;;;19.50;73.00;;;;;;5134428;27;19908;-78
2022/10/13 02:59:40;;;;;;;;;;;19.50;72.90;;;;;;5115789;27;20384;-79
2022/10/13 03:02:07;;;;;;;;;;;19.50;73.80;;;;;;5134114;27;19926;-80
2022/10/13 03:04:33;;;;;;;;;;;19.50;74.00;;;;;;5134172;27;19965;-78
2022/10/13 03:07:00;;;;;;;;;;;19.50;73.80;;;;;;5133910;27;19914;-76
2022/10/13 03:09:27;;;;;;;;;;;19.50;74.00;;;;;;5134062;27;19912;-78
2022/10/13 03:11:53;;;;;;;;;;;19.50;74.30;;;;;;5134041;27;19908;-78
2022/10/13 03:14:20;;;;;;;;;;;19.50;74.10;;;;;;5134081;27;19950;-78
2022/10/13 03:16:47;;;;;;;;;;;19.50;74.10;;;;;;5134221;27;20246;-78
2022/10/13 03:19:13;;;;;;;;;;;19.50;74.20;;;;;;5133734;27;20007;-77
2022/10/13 03:21:40;;;;;;;;;;;19.50;74.20;;;;;;5133930;27;19908;-78
2022/10/13 03:24:06;;;;;;;;;;;19.60;74.30;;;;;;5133798;27;19908;-78
2022/10/13 03:26:33;;;;;;;;;;;19.60;74.50;;;;;;5133716;27;19911;-78
2022/10/13 03:29:00;;;;;;;;;;;19.60;75.20;;;;;;5133360;27;19907;-78
2022/10/13 03:31:27;;;;;;;;;;;19.70;75.10;;;;;;5115669;27;19994;-77
2022/10/13 03:33:53;;;;;;;;;;;19.70;75.30;;;;;;5133553;27;19914;-78
2022/10/13 03:36:20;;;;;;;;;;;19.70;73.30;;;;;;5133655;27;20369;-79
2022/10/13 03:38:47;;;;;;;;;;;19.70;73.00;;;;;;5133368;27;19907;-80
2022/10/13 03:41:15;;;;;;;;;;;19.70;73.00;;;;;;5133720;27;19908;-78
2022/10/13 03:43:42;;;;;;;;;;;19.70;72.20;;;;;;5114974;27;19908;-81
2022/10/13 03:46:12;;;;;;;;;;;19.70;72.80;;;;;;5133389;27;19941;-76
2022/10/13 03:48:39;;;;;;;;;;;19.80;72.50;;;;;;5114918;27;19907;-78
2022/10/13 03:51:07;;;;;;;;;;;19.90;72.30;;;;;;5133131;27;19958;-78
2022/10/13 03:53:34;;;;;;;;;;;20.00;72.10;;;;;;5114843;28;19938;-78
2022/10/13 03:56:01;;;;;;;;;;;20.00;71.40;;;;;;5133134;27;20417;-78
2022/10/13 03:58:28;;;;;;;;;;;20.00;72.40;;;;;;5133149;27;19942;-78
2022/10/13 04:00:54;;;;;;;;;;;20.00;72.90;;;;;;5133418;27;19922;-77
2022/10/13 04:03:21;;;;;;;;;;;20.00;70.90;;;;;;5097205;28;19916;-77
2022/10/13 04:05:48;;;;;;;;;;;19.90;70.90;;;;;;5132869;28;19907;-77
2022/10/13 04:08:14;;;;;;;;;;;19.90;71.70;;;;;;5114974;28;20363;-77
2022/10/13 04:10:41;;;;;;;;;;;19.90;71.90;;;;;;5114924;28;19907;-79
2022/10/13 04:13:08;;;;;;;;;;;19.90;70.70;;;;;;5133255;28;20364;-78
2022/10/13 04:15:37;;;;;;;;;;;19.80;70.20;;;;;;5133003;27;19916;-78
2022/10/13 04:18:04;;;;;;;;;;;19.90;71.70;;;;;;5133263;28;19907;-78
2022/10/13 04:20:31;;;;;;;;;;;19.90;71.30;;;;;;5114100;28;19941;-79
2022/10/13 04:22:57;;;;;;;;;;;20.10;71.10;;;;;;5133113;28;19957;-77
2022/10/13 04:25:24;;;;;;;;;;;20.20;71.30;;;;;;5132706;28;19998;-78
2022/10/13 04:27:50;;;;;;;;;;;20.20;70.50;;;;;;5132797;28;19907;-79
2022/10/13 04:30:17;;;;;;;;;;;20.30;70.40;;;;;;5132842;27;19908;-80
2022/10/13 04:32:44;;;;;;;;;;;20.20;68.80;;;;;;5133060;28;19939;-77
2022/10/13 04:35:10;;;;;;;;;;;20.20;68.00;;;;;;5114643;28;20287;-77
2022/10/13 04:37:37;;;;;;;;;;;20.20;68.60;;;;;;5132678;28;19907;-78
2022/10/13 04:40:04;;;;;;;;;;;20.20;68.00;;;;;;5132829;27;20361;-77
2022/10/13 04:42:30;;;;;;;;;;;20.20;67.00;;;;;;5132928;27;20289;-77
2022/10/13 04:44:57;;;;;;;;;;;20.10;67.10;;;;;;5132675;28;19951;-78
2022/10/13 04:47:23;;;;;;;;;;;20.00;67.60;;;;;;5132659;28;19907;-78
2022/10/13 04:49:50;;;;;;;;;;;20.00;67.40;;;;;;5132246;27;19914;-78
2022/10/13 04:52:16;;;;;;;;;;;20.00;69.00;;;;;;5132821;28;19907;-78
2022/10/13 04:54:43;;;;;;;;;;;20.10;68.60;;;;;;5114148;28;20014;-77
2022/10/13 04:57:10;;;;;;;;;;;20.10;69.30;;;;;;5132600;28;19907;-78
2022/10/13 04:59:36;;;;;;;;;;;20.10;69.30;;;;;;5132690;27;20386;-76
2022/10/13 05:02:03;;;;;;;;;;;20.00;69.90;;;;;;5132646;28;19907;-77
2022/10/13 05:04:29;;;;;;;;;;;20.00;69.80;;;;;;5132652;28;19955;-77
2022/10/13 05:06:56;;;;;;;;;;;20.00;70.90;;;;;;5132414;28;19915;-77
2022/10/13 05:09:23;;;;;;;;;;;20.00;70.10;;;;;;5132512;27;19919;-78
2022/10/13 05:11:49;;;;;;;;;;;20.00;70.60;;;;;;5132497;28;20315;-77
2022/10/13 05:14:16;;;;;;;;;;;20.00;70.00;;;;;;5132816;27;19911;-77
2022/10/13 05:16:42;;;;;;;;;;;20.00;70.60;;;;;;5136440;27;19952;-76
2022/10/13 05:19:09;;;;;;;;;;;20.00;69.90;;;;;;5136165;27;19976;-76
2022/10/13 05:21:35;;;;;;;;;;;20.00;70.10;;;;;;5136318;27;19907;-76
2022/10/13 05:24:04;;;;;;;;;;;20.00;70.50;;;;;;5136108;27;19911;-77
2022/10/13 05:26:32;;;;;;;;;;;20.00;70.70;;;;;;5136070;27;19947;-76
2022/10/13 05:28:59;;;;;;;;;;;20.00;70.50;;;;;;5136063;27;19912;-77
2022/10/13 05:31:26;;;;;;;;;;;19.90;70.20;;;;;;5136017;27;20369;-77
2022/10/13 05:33:53;;;;;;;;;;;19.90;71.00;;;;;;5135739;27;20421;-77
2022/10/13 05:36:20;;;;;;;;;;;19.80;70.80;;;;;;5135787;27;19907;-77
2022/10/13 05:38:51;;;;;;;;;;;19.80;70.40;;;;;;5131947;27;19960;-76
2022/10/13 05:41:17;;;;;;;;;;;19.90;70.10;;;;;;5109002;27;20390;-76
2022/10/13 05:43:44;;;;;;;;;;;20.00;69.70;;;;;;5112014;27;19912;-75
2022/10/13 05:46:10;;;;;;;;;;;20.00;70.10;;;;;;5133725;27;19908;-76
2022/10/13 05:48:37;;;;;;;;;;;20.00;69.90;;;;;;5118258;27;19911;-76
2022/10/13 05:51:14;;;;;;;;;;;20.10;70.30;;;;;;5117383;27;19904;-76
2022/10/13 05:53:41;;;;;;;;;;;20.00;70.20;;;;;;5087868;27;20286;-76
2022/10/13 05:56:09;;;;;;;;;;;20.00;71.40;;;;;;5095372;28;20007;-76
2022/10/13 05:58:36;;;;;;;;;;;20.10;71.40;;;;;;5098430;27;19946;-76
2022/10/13 06:01:04;;;;;;;;;;;20.10;71.30;;;;;;5101378;27;19919;-75
2022/10/13 06:03:31;;;;;;;;;;;20.10;71.90;;;;;;5110171;28;19923;-73
2022/10/13 06:05:58;;;;;;;;;;;20.10;71.70;;;;;;5102820;28;19916;-76
2022/10/13 06:08:24;;;;;;;;;;;20.00;72.00;;;;;;5113170;27;19912;-76
2022/10/13 06:10:51;;;;;;;;;;;20.00;72.70;;;;;;5125727;27;19994;-75
2022/10/13 06:13:18;;;;;;;;;;;20.00;73.30;;;;;;5107494;27;19920;-76
2022/10/13 06:15:44;;;;;;;;;;;20.00;73.70;;;;;;5116372;27;19907;-75
2022/10/13 06:18:11;;;;;;;;;;;20.00;74.40;;;;;;5135126;27;19908;-76
2022/10/13 06:20:37;;;;;;;;;;;19.90;74.90;;;;;;5134836;27;19938;-75
2022/10/13 06:23:04;;;;;;;;;;;19.90;75.40;;;;;;5133539;27;19918;-75
2022/10/13 06:25:31;;;;;;;;;;;19.80;76.00;;;;;;5128921;27;20315;-75
2022/10/13 06:27:59;;;;;;;;;;;19.80;76.80;;;;;;5134680;27;19908;-76
2022/10/13 06:30:26;;;;;;;;;;;19.80;77.20;;;;;;5117273;27;20019;-76
2022/10/13 06:32:55;;;;;;;;;;;19.70;77.70;;;;;;5134379;27;19915;-77
2022/10/13 06:35:22;;;;;;;;;;;19.70;77.90;;;;;;5131114;27;19977;-76
2022/10/13 06:37:49;;;;;;;;;;;19.70;78.00;;;;;;5102888;27;19936;-76
2022/10/13 06:40:15;;;;;;;;;;;19.70;78.40;;;;;;5118132;27;19959;-74
2022/10/13 06:42:48;;;;;;;;;;;19.70;78.90;;;;;;5117386;27;20204;-74
2022/10/13 06:45:15;;;;;;;;;;;19.60;79.30;;;;;;5125411;27;20240;-77
2022/10/13 06:47:42;;;;;;;;;;;19.60;79.50;;;;;;5104616;27;20009;-77
2022/10/13 06:50:08;;;;;;;;;;;19.60;79.70;;;;;;5117501;27;20396;-76
2022/10/13 06:52:35;;;;;;;;;;;19.60;79.70;;;;;;5110794;27;19912;-77
2022/10/13 06:55:01;;;;;;;;;;;19.60;79.70;;;;;;5111819;27;20400;-76
2022/10/13 06:57:28;;;;;;;;;;;19.60;79.60;;;;;;5111313;27;19974;-77
2022/10/13 06:59:55;;;;;;;;;;;19.60;80.00;;;;;;5112805;27;20014;-76
2022/10/13 07:02:21;;;;;;;;;;;19.50;80.20;;;;;;5105842;27;19994;-76
2022/10/13 07:04:48;;;;;;;;;;;19.50;79.90;;;;;;5112861;27;20478;-76
2022/10/13 07:07:15;;;;;;;;;;;19.50;80.30;;;;;;5114117;27;19911;-76
2022/10/13 07:09:41;;;;;;;;;;;19.50;80.40;;;;;;5115466;27;19938;-76
2022/10/13 07:12:08;;;;;;;;;;;19.50;80.30;;;;;;5113250;27;19912;-80
2022/10/13 07:14:35;;;;;;;;;;;19.40;80.40;;;;;;5115663;27;19919;-78
2022/10/13 07:17:01;;;;;;;;;;;19.40;80.30;;;;;;5117285;27;19941;-75
2022/10/13 07:19:28;;;;;;;;;;;19.40;80.30;;;;;;5113163;27;19916;-78
2022/10/13 07:21:55;;;;;;;;;;;19.30;80.40;;;;;;5114225;27;19926;-79
2022/10/13 07:24:22;;;;;;;;;;;19.30;80.60;;;;;;5097798;28;19919;-79
2022/10/13 07:26:48;;;;;;;;;;;19.30;80.70;;;;;;5109554;27;19915;-78
2022/10/13 07:29:15;;;;;;;;;;;19.30;81.10;;;;;;5098726;28;20002;-78
2022/10/13 07:31:42;;;;;;;;;;;19.30;81.20;;;;;;5114454;27;19947;-79
2022/10/13 08:58:23;;;;;;;;;;;18.90;85.50;;;;;;5100296;28;20001;-74
2022/10/13 09:01:15;;;;;;;;;;;19.00;85.70;;;;;;5104776;28;19927;-74
2022/10/13 09:03:42;;;;;;;;;;;19.00;85.70;;;;;;5104025;28;20014;-74
2022/10/13 09:06:30;;;;;;;;;;;19.00;85.70;;;;;;5106209;28;19973;-74
2022/10/13 09:08:58;;;;;;;;;;;19.00;85.90;;;;;;5110719;28;20018;-74
2022/10/13 09:11:28;;;;;;;;;;;19.00;86.00;;;;;;5105019;28;20281;-75
2022/10/13 09:13:57;;;;;;;;;;;19.00;86.10;;;;;;5110138;28;19908;-77
2022/10/13 09:16:27;;;;;;;;;;;18.90;86.40;;;;;;5102612;28;20436;-77
2022/10/13 09:18:54;;;;;;;;;;;18.90;86.40;;;;;;5112122;28;19915;-75
2022/10/13 09:21:22;;;;;;;;;;;19.00;86.40;;;;;;5111685;28;19938;-74
2022/10/13 09:23:53;;;;;;;;;;;19.00;86.50;;;;;;5112246;28;19934;-77
2022/10/13 09:26:26;;;;;;;;;;;19.00;86.50;;;;;;5107342;28;20294;-75
2022/10/13 09:28:58;;;;;;;;;;;18.90;86.20;;;;;;5109035;28;19965;-75
2022/10/13 09:31:26;;;;;;;;;;;18.90;85.90;;;;;;5115263;27;20006;-75
2022/10/13 09:34:03;;;;;;;;;;;18.90;86.00;;;;;;5124736;27;19964;-75
2022/10/13 09:36:30;;;;;;;;;;;18.90;86.10;;;;;;5102855;28;20131;-75
2022/10/13 09:39:07;;;;;;;;;;;18.90;86.10;;;;;;5116018;27;19916;-75
2022/10/13 09:41:33;;;;;;;;;;;18.90;86.30;;;;;;5129448;27;19922;-75
2022/10/13 09:44:04;;;;;;;;;;;18.90;86.00;;;;;;5110188;27;20289;-75
2022/10/13 09:46:32;;;;;;;;;;;18.90;85.30;;;;;;5110905;27;19912;-76
2022/10/13 09:49:00;;;;;;;;;;;18.90;85.10;;;;;;5111697;27;20011;-75
2022/10/13 09:51:30;;;;;;;;;;;18.90;84.70;;;;;;5096083;27;19911;-75
2022/10/13 09:53:56;;;;;;;;;;;18.80;84.60;;;;;;5094168;28;19912;-76
2022/10/13 09:56:25;;;;;;;;;;;18.80;84.50;;;;;;5114068;27;19919;-76
2022/10/13 09:59:05;;;;;;;;;;;18.80;84.60;;;;;;5110023;27;19930;-75
2022/10/13 10:01:32;;;;;;;;;;;18.80;84.70;;;;;;5094990;27;19916;-75
2022/10/13 10:03:59;;;;;;;;;;;18.80;84.80;;;;;;5096740;28;20409;-75
2022/10/13 10:06:25;;;;;;;;;;;18.80;84.90;;;;;;5099243;27;20281;-75
2022/10/13 10:08:55;;;;;;;;;;;18.80;85.00;;;;;;5114308;27;19969;-75
2022/10/13 10:11:28;;;;;;;;;;;18.80;85.10;;;;;;5090276;27;19977;-75
2022/10/13 10:13:56;;;;;;;;;;;18.80;85.20;;;;;;5097861;28;19912;-75
2022/10/13 10:16:34;;;;;;;;;;;18.80;85.30;;;;;;5113040;27;19982;-75
2022/10/13 10:19:10;;;;;;;;;;;18.80;85.40;;;;;;5097860;28;19912;-75
2022/10/13 10:21:37;;;;;;;;;;;18.80;85.50;;;;;;5122268;27;20377;-75
2022/10/13 10:24:19;;;;;;;;;;;18.80;85.60;;;;;;5113595;27;20387;-76
2022/10/13 10:26:52;;;;;;;;;;;18.90;85.80;;;;;;5120223;27;19975;-75
2022/10/13 10:29:29;;;;;;;;;;;18.90;85.80;;;;;;5110020;27;19916;-75
2022/10/13 10:31:58;;;;;;;;;;;18.90;85.80;;;;;;5094323;28;20014;-75
2022/10/13 10:34:30;;;;;;;;;;;18.90;86.00;;;;;;5111625;28;19953;-75
2022/10/13 10:36:57;;;;;;;;;;;18.80;85.90;;;;;;5082389;28;19912;-75
2022/10/13 10:39:29;;;;;;;;;;;18.90;86.20;;;;;;5114615;27;19919;-76
2022/10/13 10:42:02;;;;;;;;;;;18.80;86.30;;;;;;5107554;27;20373;-76
2022/10/13 10:44:39;;;;;;;;;;;18.80;86.20;;;;;;5086866;28;19916;-76
2022/10/13 10:47:07;;;;;;;;;;;18.80;86.30;;;;;;5098503;27;19918;-76
2022/10/13 10:49:34;;;;;;;;;;;18.80;86.30;;;;;;5125827;27;20273;-75
2022/10/13 10:52:02;;;;;;;;;;;18.90;86.30;;;;;;5111229;27;19947;-75
2022/10/13 10:54:31;;;;;;;;;;;18.90;86.40;;;;;;5111399;27;19986;-75
2022/10/13 10:57:10;;;;;;;;;;;18.80;86.50;;;;;;5099463;27;19912;-76
2022/10/13 10:59:43;;;;;;;;;;;18.90;86.60;;;;;;5078972;27;19931;-75
2022/10/13 11:02:13;;;;;;;;;;;18.80;86.70;;;;;;5111230;27;19922;-75
2022/10/13 11:04:40;;;;;;;;;;;18.80;86.70;;;;;;5114845;27;19923;-76
2022/10/13 11:07:33;;;;;;;;;;;18.80;86.70;;;;;;5114043;27;20302;-75
2022/10/13 11:10:00;;;;;;;;;;;18.80;86.80;;;;;;5078717;28;19911;-76
2022/10/13 11:12:46;;;;;;;;;;;18.80;86.80;;;;;;5092587;28;19908;-75
2022/10/13 11:15:15;;;;;;;;;;;18.80;86.80;;;;;;5110421;28;19912;-76
2022/10/13 11:17:42;;;;;;;;;;;18.80;86.70;;;;;;5110593;28;19999;-77
2022/10/13 11:20:18;;;;;;;;;;;18.80;86.70;;;;;;5088756;28;19920;-75
2022/10/13 11:23:00;;;;;;;;;;;18.80;86.90;;;;;;5110901;28;19912;-75
2022/10/13 11:25:38;;;;;;;;;;;18.80;86.90;;;;;;5110423;28;19911;-78
2022/10/13 11:28:20;;;;;;;;;;;18.80;86.90;;;;;;5110923;28;19912;-76
2022/10/13 11:30:49;;;;;;;;;;;18.80;86.90;;;;;;5108977;28;20323;-75
2022/10/13 11:33:34;;;;;;;;;;;18.80;87.00;;;;;;5110308;28;20335;-77
2022/10/13 11:36:18;;;;;;;;;;;18.80;87.00;;;;;;5104877;28;20243;-76
2022/10/13 11:38:45;;;;;;;;;;;18.80;87.00;;;;;;5107534;28;19957;-76
2022/10/13 11:41:18;;;;;;;;;;;18.80;87.00;;;;;;5091721;28;19920;-76
2022/10/13 11:43:48;;;;;;;;;;;18.80;87.00;;;;;;5091956;28;19962;-76
2022/10/13 11:46:19;;;;;;;;;;;18.80;87.00;;;;;;5110191;28;20054;-75
2022/10/13 11:49:04;;;;;;;;;;;18.80;87.10;;;;;;5091720;28;19969;-75
2022/10/13 11:51:38;;;;;;;;;;;18.80;87.00;;;;;;5109050;28;19911;-77
2022/10/13 11:54:09;;;;;;;;;;;18.70;87.10;;;;;;5112205;28;19915;-76
2022/10/13 11:56:43;;;;;;;;;;;18.80;87.10;;;;;;5131228;27;19940;-75
2022/10/13 11:59:32;;;;;;;;;;;18.70;87.10;;;;;;5108833;28;19985;-76
2022/10/13 12:02:05;;;;;;;;;;;18.70;87.10;;;;;;5083608;28;19921;-76
2022/10/13 12:04:31;;;;;;;;;;;18.80;87.10;;;;;;5082376;28;19955;-78
2022/10/13 12:07:02;;;;;;;;;;;18.70;87.00;;;;;;5089603;28;19915;-79
2022/10/13 12:09:30;;;;;;;;;;;18.70;87.10;;;;;;5089769;28;19951;-79
2022/10/13 12:12:16;;;;;;;;;;;18.70;87.20;;;;;;5088663;28;19966;-76
2022/10/13 12:14:47;;;;;;;;;;;18.70;87.10;;;;;;5089333;28;19915;-75
2022/10/13 12:17:21;;;;;;;;;;;18.70;86.90;;;;;;5091266;28;19909;-76
2022/10/13 12:19:48;;;;;;;;;;;18.70;86.80;;;;;;5090512;28;20003;-75
2022/10/13 12:22:14;;;;;;;;;;;18.70;86.30;;;;;;5092039;28;19908;-75
2022/10/13 12:24:41;;;;;;;;;;;18.70;86.20;;;;;;5093032;28;20389;-75
2022/10/13 12:27:16;;;;;;;;;;;18.70;86.10;;;;;;5095266;28;19920;-75
2022/10/13 12:29:43;;;;;;;;;;;18.60;85.80;;;;;;5094883;28;19912;-75
2022/10/13 12:32:28;;;;;;;;;;;18.70;85.80;;;;;;5096315;28;19915;-75
2022/10/13 12:34:55;;;;;;;;;;;18.60;85.60;;;;;;5094973;28;20434;-75
2022/10/13 12:37:25;;;;;;;;;;;18.60;85.50;;;;;;5096198;28;19934;-75
2022/10/13 12:39:51;;;;;;;;;;;18.70;85.50;;;;;;5094670;28;19931;-75
2022/10/13 12:42:18;;;;;;;;;;;18.60;85.10;;;;;;5085768;28;19912;-75
2022/10/13 12:44:44;;;;;;;;;;;18.60;85.20;;;;;;5094822;28;20383;-79
2022/10/13 12:47:29;;;;;;;;;;;18.60;85.10;;;;;;5094445;28;19915;-75
2022/10/13 12:50:16;;;;;;;;;;;18.60;84.80;;;;;;5097131;28;19908;-75
2022/10/13 12:52:43;;;;;;;;;;;18.60;85.00;;;;;;5101939;28;20335;-75
2022/10/13 12:55:13;;;;;;;;;;;18.60;84.70;;;;;;5115117;28;19919;-75
2022/10/13 12:57:40;;;;;;;;;;;18.60;84.40;;;;;;5111313;28;19908;-75
2022/10/13 13:00:19;;;;;;;;;;;18.60;84.40;;;;;;5096959;27;19919;-76
2022/10/13 13:02:55;;;;;;;;;;;18.60;84.20;;;;;;5109908;27;20277;-76
2022/10/13 13:05:28;;;;;;;;;;;18.60;84.40;;;;;;5136370;27;20258;-76
2022/10/13 13:07:55;;;;;;;;;;;18.60;84.20;;;;;;5136438;27;19911;-76
2022/10/13 13:10:22;;;;;;;;;;;18.50;84.10;;;;;;5134839;27;19947;-75
2022/10/13 13:12:48;;;;;;;;;;;18.50;84.20;;;;;;5126323;27;19922;-76
2022/10/13 13:15:18;;;;;;;;;;;18.50;84.30;;;;;;5136209;27;19911;-75
2022/10/13 13:17:44;;;;;;;;;;;18.50;84.50;;;;;;5136367;27;19914;-76
2022/10/13 13:20:30;;;;;;;;;;;18.50;84.40;;;;;;5107799;27;19981;-76
2022/10/13 13:22:56;;;;;;;;;;;18.50;84.30;;;;;;5136196;27;19908;-76
2022/10/13 13:25:23;;;;;;;;;;;18.50;84.20;;;;;;5117691;27;19910;-76
2022/10/13 13:27:49;;;;;;;;;;;18.50;84.30;;;;;;5136366;27;19953;-75
2022/10/13 13:30:17;;;;;;;;;;;18.50;84.20;;;;;;5124372;27;20297;-76
2022/10/13 13:32:43;;;;;;;;;;;18.50;84.20;;;;;;5117890;27;19908;-76
2022/10/13 13:35:10;;;;;;;;;;;18.40;84.30;;;;;;5115654;28;19960;-75
2022/10/13 13:37:37;;;;;;;;;;;18.40;84.20;;;;;;5115184;28;19935;-76
2022/10/13 13:40:05;;;;;;;;;;;18.40;84.40;;;;;;5114795;28;19920;-75
2022/10/13 13:42:31;;;;;;;;;;;18.40;84.30;;;;;;5115564;28;20365;-75
2022/10/13 13:44:58;;;;;;;;;;;18.40;84.40;;;;;;5101163;28;19911;-76
2022/10/13 13:47:25;;;;;;;;;;;18.40;84.50;;;;;;5115271;28;19914;-76
2022/10/13 13:49:52;;;;;;;;;;;18.40;84.40;;;;;;5118606;27;19915;-76
2022/10/13 13:52:20;;;;;;;;;;;18.30;84.30;;;;;;5126077;27;19912;-76
2022/10/13 13:54:47;;;;;;;;;;;18.30;84.30;;;;;;5131825;27;19908;-75
2022/10/13 13:57:14;;;;;;;;;;;18.30;84.40;;;;;;5135762;27;19915;-76
2022/10/13 13:59:40;;;;;;;;;;;18.30;84.40;;;;;;5131528;27;20393;-75
2022/10/13 14:02:11;;;;;;;;;;;18.30;84.40;;;;;;5135467;27;19907;-75
2022/10/13 14:04:38;;;;;;;;;;;18.30;84.30;;;;;;5117217;27;19911;-75
2022/10/13 14:07:04;;;;;;;;;;;18.30;84.40;;;;;;5135534;27;19988;-76
2022/10/13 14:09:31;;;;;;;;;;;18.30;84.50;;;;;;5132562;27;19946;-76
2022/10/13 14:11:58;;;;;;;;;;;18.30;84.40;;;;;;5132720;27;19998;-75
2022/10/13 14:14:24;;;;;;;;;;;18.30;84.50;;;;;;5135042;27;19908;-76
2022/10/13 14:16:51;;;;;;;;;;;18.30;84.60;;;;;;5134983;27;20277;-75
2022/10/13 14:19:18;;;;;;;;;;;18.30;84.60;;;;;;5116793;27;19915;-75
2022/10/13 14:21:45;;;;;;;;;;;18.30;84.40;;;;;;5123205;27;19919;-76
2022/10/13 14:24:11;;;;;;;;;;;18.20;84.60;;;;;;5116798;27;20280;-76
2022/10/13 14:26:38;;;;;;;;;;;18.30;84.70;;;;;;5135001;27;20222;-76
2022/10/13 14:29:05;;;;;;;;;;;18.20;84.70;;;;;;5135005;27;20353;-75
2022/10/13 14:31:31;;;;;;;;;;;18.20;84.70;;;;;;5126287;27;20377;-76
2022/10/13 14:33:58;;;;;;;;;;;18.30;84.80;;;;;;5135128;27;19912;-75
2022/10/13 14:36:25;;;;;;;;;;;18.30;84.70;;;;;;5135155;27;19958;-75
2022/10/13 14:38:53;;;;;;;;;;;18.30;84.60;;;;;;5134557;27;19919;-76
2022/10/13 14:41:19;;;;;;;;;;;18.30;84.60;;;;;;5120741;27;19916;-76
2022/10/13 14:43:46;;;;;;;;;;;18.30;84.70;;;;;;5134442;27;19911;-76
2022/10/13 14:46:13;;;;;;;;;;;18.30;84.60;;;;;;5134452;27;19998;-75
2022/10/13 14:48:39;;;;;;;;;;;18.30;84.60;;;;;;5117421;27;19986;-75
2022/10/13 14:51:06;;;;;;;;;;;18.30;84.60;;;;;;5126245;27;19914;-76
2022/10/13 14:53:33;;;;;;;;;;;18.30;84.50;;;;;;5105743;27;19956;-76
2022/10/13 14:56:00;;;;;;;;;;;18.20;84.60;;;;;;5134490;27;19912;-75
2022/10/13 14:58:27;;;;;;;;;;;18.30;84.50;;;;;;5134079;27;19908;-75
2022/10/13 15:00:54;;;;;;;;;;;18.20;84.50;;;;;;5127898;27;19923;-75
2022/10/13 15:03:21;;;;;;;;;;;18.30;84.50;;;;;;5129555;27;20420;-75
2022/10/13 15:05:48;;;;;;;;;;;18.20;84.30;;;;;;5134335;27;19908;-76
2022/10/13 15:08:14;;;;;;;;;;;18.20;84.60;;;;;;5123871;27;19911;-76
2022/10/13 15:10:41;;;;;;;;;;;18.20;84.60;;;;;;5127903;27;20353;-75
2022/10/13 15:13:08;;;;;;;;;;;18.20;84.80;;;;;;5134309;27;19933;-76
2022/10/13 15:15:34;;;;;;;;;;;18.20;84.90;;;;;;5134095;27;19930;-75
2022/10/13 15:18:01;;;;;;;;;;;18.20;84.80;;;;;;5134226;27;19915;-75
2022/10/13 15:20:28;;;;;;;;;;;18.20;84.70;;;;;;5122696;27;19927;-76
2022/10/13 15:22:54;;;;;;;;;;;18.20;84.70;;;;;;5125398;27;19915;-75
2022/10/13 15:25:21;;;;;;;;;;;18.20;84.90;;;;;;5116122;27;19911;-76
2022/10/13 15:27:47;;;;;;;;;;;18.20;84.90;;;;;;5129977;27;20045;-75
2022/10/13 15:30:14;;;;;;;;;;;18.20;85.00;;;;;;5102245;28;19916;-75
2022/10/13 15:32:41;;;;;;;;;;;18.20;85.10;;;;;;5127798;27;19908;-76
2022/10/13 15:35:07;;;;;;;;;;;18.10;85.20;;;;;;5124758;27;19914;-75
2022/10/13 15:37:34;;;;;;;;;;;18.10;85.10;;;;;;5133568;27;19915;-75
2022/10/13 15:40:01;;;;;;;;;;;18.10;85.10;;;;;;5126623;27;19916;-76
2022/10/13 15:42:27;;;;;;;;;;;18.10;85.00;;;;;;5113785;27;19908;-76
2022/10/13 15:44:54;;;;;;;;;;;18.10;85.00;;;;;;5134000;27;19911;-75
2022/10/13 15:47:20;;;;;;;;;;;18.10;85.00;;;;;;5133727;27;19911;-75
2022/10/13 15:49:47;;;;;;;;;;;18.20;85.00;;;;;;5131458;27;20425;-75